createdAt,value
2023-02-19T00:01:16.311Z,17.30
2023-02-19T00:04:06.168Z,17.30
2023-02-19T00:06:54.207Z,17.40
2023-02-19T00:09:42.250Z,17.40
2023-02-19T00:12:30.293Z,17.70
2023-02-19T00:15:19.635Z,17.50
2023-02-19T00:18:07.672Z,17.50
2023-02-19T00:20:57.406Z,17.40
2023-02-19T00:23:49.160Z,17.50
2023-02-19T00:26:40.982Z,17.50
2023-02-19T00:29:29.107Z,17.40
2023-02-19T00:32:18.573Z,17.30
2023-02-19T00:35:07.296Z,17.40
2023-02-19T00:37:55.344Z,17.40
2023-02-19T00:40:43.362Z,17.30
2023-02-19T00:43:31.353Z,17.30
2023-02-19T00:46:21.112Z,17.30
2023-02-19T00:49:16.040Z,17.30
2023-02-19T00:52:04.100Z,17.10
2023-02-19T00:54:52.110Z,17.20
2023-02-19T00:57:40.614Z,17.20
2023-02-19T01:00:28.695Z,17.20
2023-02-19T01:03:16.777Z,17.20
2023-02-19T01:06:07.906Z,17.20
2023-02-19T01:08:55.886Z,17.30
2023-02-19T01:11:43.931Z,17.30
2023-02-19T01:14:32.137Z,17.30
2023-02-19T01:17:20.184Z,17.30
2023-02-19T01:20:08.816Z,17.40
2023-02-19T01:22:58.165Z,17.40
2023-02-19T01:25:46.147Z,17.40
2023-02-19T01:28:34.271Z,17.50
2023-02-19T01:31:24.124Z,17.50
2023-02-19T01:34:13.163Z,17.60
2023-02-19T01:37:01.339Z,17.60
2023-02-19T01:39:50.768Z,17.60
2023-02-19T01:42:43.140Z,17.60
2023-02-19T01:45:32.468Z,17.50
2023-02-19T01:48:24.570Z,17.50
2023-02-19T01:51:15.990Z,17.30
2023-02-19T01:54:05.871Z,17.50
2023-02-19T01:56:56.618Z,17.50
2023-02-19T01:59:45.468Z,17.50
2023-02-19T02:02:33.598Z,17.40
2023-02-19T02:05:29.152Z,17.40
2023-02-19T02:08:36.370Z,17.40
2023-02-19T02:11:24.726Z,17.30
2023-02-19T02:14:14.549Z,17.20
2023-02-19T02:17:11.358Z,17.20
2023-02-19T02:20:24.981Z,17.20
2023-02-19T02:23:23.426Z,17.10
2023-02-19T02:26:32.197Z,17.10
2023-02-19T02:29:45.762Z,17.30
2023-02-19T02:32:40.795Z,18.30
2023-02-19T02:35:33.806Z,17.40
2023-02-19T02:38:25.309Z,17.40
2023-02-19T02:41:15.025Z,17.40
2023-02-19T02:44:03.021Z,17.50
2023-02-19T02:46:52.413Z,17.50
2023-02-19T02:50:00.960Z,17.60
2023-02-19T02:53:10.909Z,17.90
2023-02-19T02:56:00.379Z,17.70
2023-02-19T02:58:50.522Z,17.70
2023-02-19T03:02:00.631Z,17.70
2023-02-19T03:05:15.523Z,17.70
2023-02-19T03:08:07.653Z,17.80
2023-02-19T03:10:59.911Z,17.80
2023-02-19T03:14:07.007Z,17.80
2023-02-19T03:17:17.142Z,18.20
2023-02-19T03:20:11.475Z,17.80
2023-02-19T03:23:02.018Z,17.80
2023-02-19T03:26:04.475Z,17.40
2023-02-19T03:29:11.984Z,17.50
2023-02-19T03:32:05.295Z,17.70
2023-02-19T03:34:57.339Z,17.70
2023-02-19T03:37:51.545Z,17.50
2023-02-19T03:40:44.171Z,17.50
2023-02-19T03:43:39.579Z,17.50
2023-02-19T03:46:37.461Z,17.30
2023-02-19T03:49:30.861Z,17.40
2023-02-19T03:52:24.740Z,17.40
2023-02-19T03:55:19.032Z,17.30
2023-02-19T03:58:10.799Z,17.20
2023-02-19T04:01:03.664Z,17.20
2023-02-19T04:03:55.824Z,17.20
2023-02-19T04:06:46.093Z,17.20
2023-02-19T04:09:37.842Z,17.20
2023-02-19T04:12:27.908Z,17.20
2023-02-19T04:15:20.640Z,17.20
2023-02-19T04:18:13.508Z,17.20
2023-02-19T04:21:03.359Z,17.20
2023-02-19T04:23:51.758Z,17.40
2023-02-19T04:26:40.562Z,17.00
2023-02-19T04:29:29.892Z,17.20
2023-02-19T04:32:17.932Z,17.30
2023-02-19T04:35:06.616Z,17.40
2023-02-19T04:37:54.601Z,17.40
2023-02-19T04:40:42.592Z,17.40
2023-02-19T04:43:30.559Z,17.40
2023-02-19T04:46:19.926Z,17.30
2023-02-19T04:49:08.001Z,16.90
2023-02-19T04:51:55.973Z,17.20
2023-02-19T04:54:43.967Z,17.10
2023-02-19T04:57:32.146Z,17.30
2023-02-19T05:00:20.278Z,17.10
2023-02-19T05:03:09.646Z,17.10
2023-02-19T05:05:57.782Z,16.80
2023-02-19T05:08:45.840Z,17.00
2023-02-19T05:11:33.924Z,16.70
2023-02-19T05:14:21.942Z,16.80
2023-02-19T05:17:09.964Z,16.80
2023-02-19T05:19:59.262Z,16.30
2023-02-19T05:22:47.263Z,16.70
2023-02-19T05:25:35.261Z,16.80
2023-02-19T05:28:28.665Z,17.00
2023-02-19T05:31:17.084Z,17.00
2023-02-19T05:34:05.101Z,17.10
2023-02-19T05:36:54.459Z,16.80
2023-02-19T05:39:42.438Z,17.10
2023-02-19T05:42:30.412Z,16.80
2023-02-19T05:45:18.397Z,17.20
2023-02-19T05:48:07.659Z,17.20
2023-02-19T05:50:55.892Z,17.70
2023-02-19T05:53:45.574Z,17.70
2023-02-19T05:56:35.348Z,17.20
2023-02-19T05:59:25.982Z,17.20
2023-02-19T06:02:13.994Z,17.10
2023-02-19T06:05:01.979Z,17.10
2023-02-19T06:07:50.972Z,16.80
2023-02-19T06:10:41.298Z,17.10
2023-02-19T06:13:29.262Z,16.80
2023-02-19T06:16:18.606Z,17.10
2023-02-19T06:19:07.143Z,16.90
2023-02-19T06:21:55.143Z,17.00
2023-02-19T06:24:43.181Z,17.00
2023-02-19T06:27:32.501Z,16.80
2023-02-19T06:30:20.965Z,17.00
2023-02-19T06:33:08.988Z,16.80
2023-02-19T06:35:59.839Z,16.50
2023-02-19T06:38:48.213Z,16.80
2023-02-19T06:41:36.225Z,16.80
2023-02-19T06:44:25.977Z,16.90
2023-02-19T06:47:13.966Z,16.90
2023-02-19T06:50:02.083Z,17.00
2023-02-19T06:52:50.050Z,16.90
2023-02-19T06:55:38.227Z,17.50
2023-02-19T06:58:26.656Z,17.10
2023-02-19T07:01:16.024Z,17.00
2023-02-19T07:04:04.830Z,17.10
2023-02-19T07:06:52.874Z,17.20
2023-02-19T07:09:40.854Z,17.30
2023-02-19T07:12:28.866Z,17.40
2023-02-19T07:15:16.859Z,17.20
2023-02-19T07:18:10.244Z,17.30
2023-02-19T07:21:03.959Z,17.20
2023-02-19T07:23:51.989Z,17.20
2023-02-19T07:26:39.982Z,17.20
2023-02-19T07:29:27.982Z,17.20
2023-02-19T07:32:15.964Z,17.10
2023-02-19T07:35:05.714Z,17.30
2023-02-19T07:37:53.718Z,17.10
2023-02-19T07:40:41.747Z,17.10
2023-02-19T07:43:31.586Z,17.10
2023-02-19T07:46:19.824Z,17.00
2023-02-19T07:49:08.084Z,16.90
2023-02-19T07:51:57.391Z,16.90
2023-02-19T07:54:45.392Z,16.80
2023-02-19T07:57:33.354Z,16.70
2023-02-19T08:00:21.519Z,16.80
2023-02-19T08:03:11.034Z,16.80
2023-02-19T08:05:59.192Z,16.80
2023-02-19T08:08:48.513Z,16.90
2023-02-19T08:11:54.081Z,16.90
2023-02-19T08:14:42.058Z,16.90
2023-02-19T08:17:31.143Z,16.50
2023-02-19T08:20:19.165Z,17.00
2023-02-19T08:23:07.480Z,17.00
2023-02-19T08:26:00.642Z,17.00
2023-02-19T08:28:49.664Z,17.40
2023-02-19T08:31:37.848Z,17.20
2023-02-19T08:34:25.897Z,17.20
2023-02-19T08:37:13.860Z,17.50
2023-02-19T08:40:01.840Z,17.10
2023-02-19T08:42:51.166Z,17.00
2023-02-19T08:45:40.555Z,17.10
2023-02-19T08:48:28.825Z,17.00
2023-02-19T08:51:16.860Z,16.90
2023-02-19T08:54:05.252Z,16.90
2023-02-19T08:56:53.223Z,16.90
2023-02-19T08:59:42.507Z,16.60
2023-02-19T09:02:31.091Z,16.90
2023-02-19T09:05:19.584Z,16.80
2023-02-19T09:08:07.580Z,16.70
2023-02-19T09:10:59.631Z,16.80
2023-02-19T09:13:47.636Z,16.70
2023-02-19T09:16:37.666Z,16.70
2023-02-19T09:19:26.365Z,16.70
2023-02-19T09:22:14.369Z,16.80
2023-02-19T09:25:02.396Z,16.80
2023-02-19T09:27:50.378Z,16.50
2023-02-19T09:30:38.472Z,16.90
2023-02-19T09:33:27.865Z,16.80
2023-02-19T09:36:18.634Z,16.90
2023-02-19T09:39:07.720Z,17.00
2023-02-19T09:41:59.676Z,17.00
2023-02-19T09:44:50.603Z,17.10
2023-02-19T09:47:38.688Z,17.10
2023-02-19T09:50:34.053Z,17.10
2023-02-19T09:53:26.022Z,17.20
2023-02-19T09:56:14.027Z,17.10
2023-02-19T09:59:02.436Z,16.90
2023-02-19T10:01:57.135Z,17.20
2023-02-19T10:04:47.545Z,17.10
2023-02-19T10:07:42.536Z,17.10
2023-02-19T10:10:33.507Z,17.00
2023-02-19T10:13:24.450Z,16.90
2023-02-19T10:16:17.520Z,16.80
2023-02-19T10:19:05.583Z,17.00
2023-02-19T10:21:53.670Z,16.70
2023-02-19T10:24:44.221Z,16.80
2023-02-19T10:27:32.499Z,16.70
2023-02-19T10:30:24.839Z,16.80
2023-02-19T10:33:15.059Z,16.70
2023-02-19T10:36:05.455Z,16.70
2023-02-19T10:38:54.247Z,16.70
2023-02-19T10:41:44.404Z,16.70
2023-02-19T10:44:37.419Z,16.90
2023-02-19T10:47:27.416Z,16.80
2023-02-19T10:50:23.373Z,16.90
2023-02-19T10:53:23.991Z,16.90
2023-02-19T10:56:15.294Z,16.90
2023-02-19T10:59:25.237Z,17.00
2023-02-19T11:02:18.401Z,17.00
2023-02-19T11:05:19.906Z,17.10
2023-02-19T11:08:21.999Z,17.10
2023-02-19T11:11:10.345Z,17.10
2023-02-19T11:14:00.473Z,17.20
2023-02-19T11:16:52.270Z,17.20
2023-02-19T11:19:43.383Z,17.30
2023-02-19T11:22:33.718Z,17.30
2023-02-19T11:25:25.637Z,17.30
2023-02-19T11:28:25.955Z,17.00
2023-02-19T11:31:20.818Z,17.10
2023-02-19T11:37:14.501Z,17.10
2023-02-19T11:40:02.532Z,17.20
2023-02-19T11:42:58.085Z,17.20
2023-02-19T11:45:52.031Z,17.10
2023-02-19T11:48:53.781Z,17.00
2023-02-19T11:51:58.649Z,17.00
2023-02-19T11:54:56.958Z,16.90
2023-02-19T11:57:48.291Z,17.00
2023-02-19T12:00:43.569Z,16.80
2023-02-19T12:03:56.701Z,17.10
2023-02-19T12:06:56.120Z,16.90
2023-02-19T12:10:04.339Z,16.90
2023-02-19T12:13:03.675Z,16.90
2023-02-19T12:16:07.029Z,17.00
2023-02-19T12:19:20.987Z,17.00
2023-02-19T12:22:25.497Z,17.00
2023-02-19T12:25:29.930Z,16.80
2023-02-19T12:28:35.452Z,17.10
2023-02-19T12:31:39.597Z,17.10
2023-02-19T12:35:00.418Z,17.10
2023-02-19T12:37:56.874Z,17.40
2023-02-19T12:40:59.781Z,17.10
2023-02-19T12:43:54.308Z,17.30
2023-02-19T12:46:47.186Z,17.20
2023-02-19T12:49:40.190Z,17.00
2023-02-19T12:52:33.348Z,17.10
2023-02-19T12:55:25.645Z,17.50
2023-02-19T12:58:23.148Z,17.10
2023-02-19T13:01:14.990Z,17.20
2023-02-19T13:04:37.920Z,17.10
2023-02-19T13:07:32.518Z,17.10
2023-02-19T13:10:27.603Z,17.00
2023-02-19T13:13:23.881Z,17.00
2023-02-19T13:16:18.501Z,17.10
2023-02-19T13:19:06.941Z,16.90
2023-02-19T13:22:22.705Z,16.80
2023-02-19T13:25:12.013Z,16.90
2023-02-19T13:28:11.078Z,17.00
2023-02-19T13:31:22.544Z,16.90
2023-02-19T13:34:20.813Z,17.00
2023-02-19T13:37:09.879Z,17.00
2023-02-19T13:40:07.797Z,17.00
2023-02-19T13:42:58.477Z,17.00
2023-02-19T13:45:47.323Z,17.00
2023-02-19T13:48:38.632Z,17.00
2023-02-19T13:51:47.654Z,17.00
2023-02-19T13:54:40.112Z,17.10
2023-02-19T13:57:30.007Z,17.20
2023-02-19T14:00:49.480Z,17.20
2023-02-19T14:03:50.767Z,17.20
2023-02-19T14:07:08.640Z,17.80
2023-02-19T14:09:58.455Z,17.10
2023-02-19T14:12:46.508Z,17.20
2023-02-19T14:15:49.777Z,17.50
2023-02-19T14:18:47.261Z,17.00
2023-02-19T14:21:40.049Z,16.80
2023-02-19T14:24:28.213Z,17.00
2023-02-19T14:27:17.339Z,17.00
2023-02-19T14:30:06.121Z,16.60
2023-02-19T14:33:02.704Z,16.90
2023-02-19T14:36:05.698Z,16.70
2023-02-19T14:38:57.174Z,16.80
2023-02-19T14:41:49.429Z,16.70
2023-02-19T14:44:51.228Z,16.90
2023-02-19T14:47:39.466Z,16.70
2023-02-19T14:50:31.390Z,16.60
2023-02-19T14:53:24.332Z,16.80
2023-02-19T14:56:21.672Z,16.60
2023-02-19T14:59:22.983Z,16.90
2023-02-19T15:02:16.405Z,17.00
2023-02-19T15:05:16.323Z,17.60
2023-02-19T15:08:09.839Z,17.10
2023-02-19T15:10:59.545Z,17.20
2023-02-19T15:13:51.168Z,17.40
2023-02-19T15:16:39.256Z,17.40
2023-02-19T15:19:27.653Z,17.30
2023-02-19T15:22:20.703Z,17.20
2023-02-19T15:25:09.266Z,17.30
2023-02-19T15:28:22.066Z,17.40
2023-02-19T15:31:16.262Z,17.40
2023-02-19T15:34:04.265Z,17.50
2023-02-19T15:36:56.443Z,17.40
2023-02-19T15:39:46.405Z,17.70
2023-02-19T15:42:37.151Z,17.80
2023-02-19T15:45:29.897Z,17.50
2023-02-19T15:48:20.666Z,17.50
2023-02-19T15:51:17.399Z,17.40
2023-02-19T15:54:13.254Z,17.40
2023-02-19T15:57:06.001Z,17.40
2023-02-19T16:00:00.185Z,17.20
2023-02-19T16:02:49.856Z,17.10
2023-02-19T16:05:39.953Z,17.20
2023-02-19T16:08:31.655Z,17.50
2023-02-19T16:11:34.979Z,17.10
2023-02-19T16:14:31.001Z,17.00
2023-02-19T16:17:27.786Z,17.00
2023-02-19T16:20:22.528Z,16.90
2023-02-19T16:23:15.118Z,16.80
2023-02-19T16:26:03.930Z,17.00
2023-02-19T16:28:53.330Z,16.60
2023-02-19T16:31:48.022Z,16.90
2023-02-19T16:34:42.000Z,16.70
2023-02-19T16:37:34.057Z,17.00
2023-02-19T16:40:55.191Z,17.00
2023-02-19T16:43:44.255Z,17.00
2023-02-19T16:46:32.252Z,17.10
2023-02-19T16:49:20.578Z,16.80
2023-02-19T16:52:08.920Z,16.80
2023-02-19T16:54:58.272Z,17.10
2023-02-19T16:57:46.278Z,17.10
2023-02-19T17:00:34.939Z,17.50
2023-02-19T17:03:25.588Z,17.10
2023-02-19T17:06:13.711Z,17.20
2023-02-19T17:09:01.908Z,17.30
2023-02-19T17:11:51.207Z,17.30
2023-02-19T17:14:39.292Z,17.30
2023-02-19T17:17:27.313Z,17.40
2023-02-19T17:20:23.968Z,17.10
2023-02-19T17:23:12.029Z,17.40
2023-02-19T17:26:00.036Z,17.30
2023-02-19T17:28:49.920Z,17.30
2023-02-19T17:31:38.057Z,17.00
2023-02-19T17:34:26.076Z,17.10
2023-02-19T17:37:14.067Z,17.10
2023-02-19T17:40:02.064Z,17.00
2023-02-19T17:42:50.288Z,17.00
2023-02-19T17:45:39.635Z,16.80
2023-02-19T17:48:27.659Z,16.60
2023-02-19T17:51:15.920Z,16.90
2023-02-19T17:54:03.893Z,16.90
2023-02-19T17:56:51.912Z,16.90
2023-02-19T17:59:39.914Z,16.90
2023-02-19T18:02:29.241Z,16.70
2023-02-19T18:05:17.446Z,17.10
2023-02-19T18:08:05.474Z,17.00
2023-02-19T18:10:53.779Z,17.10
2023-02-19T18:13:41.788Z,17.30
2023-02-19T18:16:29.759Z,16.80
2023-02-19T18:19:19.864Z,17.00
2023-02-19T18:22:07.838Z,17.20
2023-02-19T18:24:55.931Z,17.30
2023-02-19T18:27:44.219Z,17.20
2023-02-19T18:30:32.317Z,17.20
2023-02-19T18:33:20.421Z,17.70
2023-02-19T18:36:12.829Z,17.40
2023-02-19T18:39:00.854Z,17.40
2023-02-19T18:41:49.777Z,17.30
2023-02-19T18:44:37.840Z,17.30
2023-02-19T18:47:26.672Z,17.30
2023-02-19T18:50:14.856Z,16.80
2023-02-19T18:53:04.170Z,17.10
2023-02-19T18:55:52.219Z,17.10
2023-02-19T18:58:40.338Z,17.10
2023-02-19T19:01:28.339Z,16.90
2023-02-19T19:04:16.690Z,17.10
2023-02-19T19:07:05.202Z,16.80
2023-02-19T19:09:54.687Z,16.80
2023-02-19T19:12:42.677Z,16.50
2023-02-19T19:15:30.710Z,16.90
2023-02-19T19:18:19.115Z,16.90
2023-02-19T19:21:09.531Z,16.70
2023-02-19T19:23:57.748Z,16.80
2023-02-19T19:26:47.542Z,17.40
2023-02-19T19:29:35.763Z,17.00
2023-02-19T19:32:23.850Z,17.10
2023-02-19T19:35:11.924Z,17.10
2023-02-19T19:37:59.916Z,17.00
2023-02-19T19:40:48.112Z,17.20
2023-02-19T19:43:37.765Z,17.20
2023-02-19T19:46:25.837Z,17.20
2023-02-19T19:49:18.292Z,17.30
2023-02-19T19:52:06.743Z,17.20
2023-02-19T19:54:54.766Z,17.30
2023-02-19T19:57:42.845Z,17.30
2023-02-19T20:00:32.191Z,17.00
2023-02-19T20:03:20.907Z,17.20
2023-02-19T20:06:09.048Z,17.10
2023-02-19T20:08:57.283Z,17.10
2023-02-19T20:11:46.504Z,17.20
2023-02-19T20:14:34.632Z,17.10
2023-02-19T20:17:27.209Z,17.00
2023-02-19T20:20:17.053Z,17.00
2023-02-19T20:23:05.063Z,16.90
2023-02-19T20:25:53.065Z,16.80
2023-02-19T20:28:45.074Z,16.80
2023-02-19T20:31:33.502Z,16.80
2023-02-19T20:34:24.114Z,16.80
2023-02-19T20:37:12.211Z,16.60
2023-02-19T20:40:00.227Z,16.90
2023-02-19T20:42:48.240Z,16.90
2023-02-19T20:45:36.211Z,16.80
2023-02-19T20:48:24.230Z,17.00
2023-02-19T20:51:13.556Z,17.00
2023-02-19T20:54:01.545Z,17.00
2023-02-19T20:56:51.541Z,16.90
2023-02-19T20:59:40.759Z,17.00
2023-02-19T21:02:29.830Z,17.00
2023-02-19T21:05:17.987Z,17.10
2023-02-19T21:08:07.332Z,17.00
2023-02-19T21:10:56.362Z,17.00
2023-02-19T21:13:44.663Z,17.20
2023-02-19T21:16:33.610Z,17.00
2023-02-19T21:19:21.706Z,17.00
2023-02-19T21:22:09.724Z,17.00
2023-02-19T21:24:59.038Z,17.30
2023-02-19T21:27:47.025Z,17.00
2023-02-19T21:30:35.025Z,16.90
2023-02-19T21:33:23.052Z,16.90
2023-02-19T21:36:11.392Z,17.00
2023-02-19T21:38:59.580Z,16.70
2023-02-19T21:41:49.090Z,16.60
2023-02-19T21:44:37.344Z,16.50
2023-02-19T21:47:27.656Z,16.70
2023-02-19T21:50:15.652Z,16.70
2023-02-19T21:53:05.462Z,16.80
2023-02-19T21:55:58.841Z,16.80
2023-02-19T21:58:48.298Z,16.80
2023-02-19T22:01:38.660Z,16.80
2023-02-19T22:04:27.327Z,16.90
2023-02-19T22:07:15.332Z,16.90
2023-02-19T22:10:03.388Z,17.00
2023-02-19T22:12:51.370Z,16.80
2023-02-19T22:15:40.662Z,16.90
2023-02-19T22:18:28.648Z,17.00
2023-02-19T22:21:16.785Z,17.00
2023-02-19T22:24:05.281Z,17.00
2023-02-19T22:26:56.777Z,17.00
2023-02-19T22:29:44.795Z,17.10
2023-02-19T22:32:34.253Z,17.00
2023-02-19T22:35:22.491Z,16.80
2023-02-19T22:38:10.456Z,16.80
2023-02-19T22:40:58.444Z,16.90
2023-02-19T22:43:46.901Z,16.50
2023-02-19T22:46:34.915Z,16.80
2023-02-19T22:49:24.872Z,16.70
2023-02-19T22:52:13.311Z,16.60
2023-02-19T22:55:01.281Z,16.60
2023-02-19T22:57:49.287Z,16.30
2023-02-19T23:00:37.282Z,16.70
2023-02-19T23:03:25.317Z,16.60
2023-02-19T23:06:14.955Z,16.50
2023-02-19T23:09:06.033Z,16.60
2023-02-19T23:12:01.296Z,16.60
2023-02-19T23:14:49.276Z,16.70
2023-02-19T23:17:37.371Z,16.70
2023-02-19T23:20:25.371Z,16.80
2023-02-19T23:23:14.699Z,16.70
2023-02-19T23:26:03.676Z,16.80
2023-02-19T23:28:51.813Z,16.90
2023-02-19T23:31:39.848Z,16.90
2023-02-19T23:34:27.893Z,17.00
2023-02-19T23:37:16.163Z,17.00
2023-02-19T23:40:06.392Z,17.00
2023-02-19T23:42:55.215Z,17.10
2023-02-19T23:45:43.323Z,17.10
2023-02-19T23:48:31.412Z,17.10
2023-02-19T23:51:19.541Z,17.00
2023-02-19T23:54:07.919Z,17.00
2023-02-19T23:56:57.967Z,17.00
2023-02-19T23:59:49.025Z,16.90
